Time;durP1;ratioP1;P1;durP2;ratioP2;P2;SDS_P1;SDS_P2;PMS_P1;PMS_P2;Temp;Humidity;BMP_temperature;BMP_pressure;BME280_temperature;BME280_humidity;BME280_pressure;Samples;Min_cycle;Max_cycle;Signal;HPM_P1;HPM_P2
2023/07/28 00:01:07;;;;;;;3.95;3.40;;;;;24.00;100289.00;;;;5090567;28;20202;-81
2023/07/28 00:03:34;;;;;;;4.88;3.55;;;;;24.10;100285.00;;;;5090535;28;20525;-80
2023/07/28 00:06:02;;;;;;;3.75;3.00;;;;;24.10;100300.00;;;;5090743;28;20191;-81
2023/07/28 00:08:29;;;;;;;4.25;3.83;;;;;24.10;100288.00;;;;5090137;28;20230;-81
2023/07/28 00:10:56;;;;;;;7.53;3.90;;;;;24.10;100295.00;;;;5090989;28;20233;-81
2023/07/28 00:13:24;;;;;;;3.80;3.35;;;;;24.10;100297.00;;;;5090297;28;20236;-81
2023/07/28 00:15:51;;;;;;;3.55;3.10;;;;;24.00;100295.00;;;;5099387;28;20194;-82
2023/07/28 00:18:21;;;;;;;4.22;3.53;;;;;24.00;100293.00;;;;5110757;28;20201;-82
2023/07/28 00:20:48;;;;;;;4.20;3.47;;;;;24.00;100293.00;;;;5110627;28;20286;-81
2023/07/28 00:23:15;;;;;;;5.07;3.33;;;;;24.10;100292.00;;;;5110855;28;20193;-81
2023/07/28 00:25:42;;;;;;;3.60;3.30;;;;;24.10;100291.00;;;;5110029;28;20202;-80
2023/07/28 00:28:10;;;;;;;4.05;3.05;;;;;24.10;100285.00;;;;5098956;28;20566;-81
2023/07/28 00:30:37;;;;;;;6.07;3.28;;;;;24.10;100282.00;;;;5089776;28;20201;-82
2023/07/28 00:33:05;;;;;;;5.00;3.42;;;;;24.10;100281.00;;;;5090158;28;20209;-81
2023/07/28 00:35:33;;;;;;;3.45;2.70;;;;;24.00;100275.00;;;;5089814;28;20229;-81
2023/07/28 00:38:01;;;;;;;5.03;3.55;;;;;24.10;100284.00;;;;5089910;28;20205;-81
2023/07/28 00:40:28;;;;;;;4.70;3.45;;;;;24.10;100276.00;;;;5089962;28;20186;-81
2023/07/28 00:42:55;;;;;;;3.88;3.03;;;;;24.10;100283.00;;;;5089696;28;20200;-81
2023/07/28 00:45:23;;;;;;;4.72;3.30;;;;;24.00;100283.00;;;;5090395;28;20574;-82
2023/07/28 00:47:51;;;;;;;4.05;2.75;;;;;24.10;100279.00;;;;5090088;28;20198;-81
2023/07/28 00:50:18;;;;;;;4.45;3.00;;;;;24.10;100281.00;;;;5090031;28;20550;-81
2023/07/28 00:52:49;;;;;;;6.60;2.47;;;;;24.00;100281.00;;;;5089525;28;20220;-81
2023/07/28 00:55:16;;;;;;;4.57;3.05;;;;;24.10;100284.00;;;;5089450;28;20222;-81
2023/07/28 00:57:44;;;;;;;3.00;2.20;;;;;24.10;100276.00;;;;5089276;28;20217;-81
2023/07/28 01:00:12;;;;;;;3.47;2.55;;;;;24.10;100286.00;;;;5089953;28;20566;-81
2023/07/28 01:02:39;;;;;;;3.85;2.40;;;;;24.10;100284.00;;;;5089558;28;20726;-81
2023/07/28 01:05:07;;;;;;;3.25;2.75;;;;;24.10;100282.00;;;;5089409;28;20683;-81
2023/07/28 01:07:43;;;;;;;3.72;2.53;;;;;24.00;100279.00;;;;5089220;28;20204;-80
2023/07/28 01:10:15;;;;;;;5.80;2.65;;;;;24.00;100294.00;;;;5089172;28;20589;-80
2023/07/28 01:12:42;;;;;;;3.17;2.40;;;;;24.10;100293.00;;;;5088861;28;20206;-80
2023/07/28 01:15:11;;;;;;;7.88;3.67;;;;;24.10;100299.00;;;;5092182;28;20324;-81
2023/07/28 01:17:38;;;;;;;2.95;2.40;;;;;24.10;100294.00;;;;5109564;28;20201;-81
2023/07/28 01:20:06;;;;;;;3.88;2.63;;;;;24.10;100297.00;;;;5107879;28;20200;-81
2023/07/28 01:22:49;;;;;;;4.32;3.08;;;;;24.00;100301.00;;;;5108979;28;20213;-81
2023/07/28 01:25:27;;;;;;;5.38;2.60;;;;;24.00;100300.00;;;;5110102;28;20205;-81
2023/07/28 01:27:57;;;;;;;5.28;3.30;;;;;24.10;100294.00;;;;5108844;28;20678;-81
2023/07/28 01:30:25;;;;;;;5.85;3.25;;;;;24.10;100298.00;;;;5108825;28;20204;-81
2023/07/28 01:32:54;;;;;;;5.63;3.55;;;;;24.10;100301.00;;;;5108870;28;20208;-81
2023/07/28 01:35:22;;;;;;;4.35;2.97;;;;;24.10;100294.00;;;;5104834;28;20207;-81
2023/07/28 01:37:50;;;;;;;5.75;3.20;;;;;24.10;100290.00;;;;5088986;28;20698;-80
2023/07/28 01:40:18;;;;;;;6.75;3.80;;;;;24.10;100292.00;;;;5088803;28;20232;-81
2023/07/28 01:42:45;;;;;;;4.47;2.95;;;;;24.10;100296.00;;;;5089406;28;20205;-80
2023/07/28 01:45:13;;;;;;;4.80;3.45;;;;;24.00;100296.00;;;;5088113;28;20203;-81
2023/07/28 01:47:41;;;;;;;4.43;3.08;;;;;24.10;100301.00;;;;5088453;28;20229;-80
2023/07/28 01:50:08;;;;;;;4.85;3.63;;;;;24.10;100301.00;;;;5088693;28;20226;-80
2023/07/28 01:52:35;;;;;;;8.45;4.38;;;;;24.10;100293.00;;;;5088566;28;20202;-81
2023/07/28 01:55:03;;;;;;;5.65;4.18;;;;;24.10;100294.00;;;;5088900;28;20198;-80
2023/07/28 01:57:33;;;;;;;9.80;3.97;;;;;24.00;100293.00;;;;5087510;28;20237;-81
2023/07/28 02:00:03;;;;;;;7.13;4.18;;;;;24.10;100298.00;;;;5103531;28;20582;-80
2023/07/28 02:02:31;;;;;;;6.95;4.38;;;;;24.10;100291.00;;;;5108917;28;20639;-80
2023/07/28 02:04:59;;;;;;;8.45;4.50;;;;;24.10;100295.00;;;;5103362;28;20216;-80
2023/07/28 02:07:26;;;;;;;7.88;4.57;;;;;24.10;100293.00;;;;5107781;28;20205;-80
2023/07/28 02:09:53;;;;;;;10.10;4.55;;;;;24.10;100289.00;;;;5107154;28;20703;-80
2023/07/28 02:12:20;;;;;;;6.63;4.68;;;;;24.10;100292.00;;;;5108187;28;20228;-81
2023/07/28 02:14:48;;;;;;;9.50;5.18;;;;;24.10;100297.00;;;;5109069;28;20197;-80
2023/07/28 02:17:15;;;;;;;7.32;4.63;;;;;24.10;100297.00;;;;5108141;28;20225;-80
2023/07/28 02:19:44;;;;;;;6.70;4.47;;;;;24.10;100290.00;;;;5108083;28;20197;-81
2023/07/28 02:22:11;;;;;;;8.85;4.75;;;;;24.10;100300.00;;;;5108417;28;20211;-80
2023/07/28 02:24:39;;;;;;;11.38;4.95;;;;;24.10;100293.00;;;;5107848;28;20618;-80
2023/07/28 02:27:06;;;;;;;7.10;4.13;;;;;24.10;100299.00;;;;5097923;28;20583;-81
2023/07/28 02:29:33;;;;;;;5.78;4.35;;;;;24.10;100292.00;;;;5087536;28;20222;-80
2023/07/28 02:32:01;;;;;;;8.48;5.22;;;;;24.10;100295.00;;;;5107779;28;20209;-81
2023/07/28 02:34:28;;;;;;;10.82;5.13;;;;;24.10;100289.00;;;;5108057;28;20198;-81
2023/07/28 02:36:56;;;;;;;10.20;4.82;;;;;24.10;100290.00;;;;5108469;28;20659;-80
2023/07/28 02:39:24;;;;;;;9.63;4.63;;;;;24.10;100286.00;;;;5108384;28;20682;-81
2023/07/28 02:41:52;;;;;;;6.38;4.13;;;;;24.10;100288.00;;;;5108347;28;20689;-81
2023/07/28 02:44:19;;;;;;;8.70;5.22;;;;;24.10;100292.00;;;;5095479;28;20422;-81
2023/07/28 02:46:46;;;;;;;9.02;4.80;;;;;24.10;100292.00;;;;5088041;28;20195;-80
2023/07/28 02:49:13;;;;;;;12.43;4.57;;;;;24.10;100296.00;;;;5088395;28;20229;-81
2023/07/28 02:51:41;;;;;;;9.73;5.40;;;;;24.10;100297.00;;;;5087608;28;20221;-81
2023/07/28 02:54:10;;;;;;;9.73;4.72;;;;;24.10;100297.00;;;;5087786;28;20194;-81
2023/07/28 02:56:38;;;;;;;10.60;5.72;;;;;24.10;100297.00;;;;5087794;28;20220;-81
2023/07/28 02:59:05;;;;;;;10.63;5.13;;;;;24.10;100303.00;;;;5088323;28;20687;-80
2023/07/28 03:01:33;;;;;;;8.25;5.38;;;;;24.10;100299.00;;;;5087816;28;20210;-81
2023/07/28 03:04:01;;;;;;;11.10;5.32;;;;;24.10;100306.00;;;;5087762;28;20554;-81
2023/07/28 03:06:28;;;;;;;11.20;5.90;;;;;24.10;100306.00;;;;5087358;28;20584;-82
2023/07/28 03:08:56;;;;;;;11.70;5.35;;;;;24.10;100312.00;;;;5087971;28;20218;-81
2023/07/28 03:11:24;;;;;;;10.65;5.40;;;;;24.10;100305.00;;;;5087945;28;20222;-81
2023/07/28 03:13:51;;;;;;;14.77;6.25;;;;;24.10;100309.00;;;;5087177;28;20199;-80
2023/07/28 03:16:19;;;;;;;10.23;5.65;;;;;24.10;100309.00;;;;5100807;28;20204;-80
2023/07/28 03:18:46;;;;;;;14.30;5.43;;;;;24.10;100315.00;;;;5107290;28;20197;-80
2023/07/28 03:21:13;;;;;;;11.57;5.88;;;;;24.10;100315.00;;;;5111871;28;20205;-81
2023/07/28 03:23:40;;;;;;;12.13;5.32;;;;;24.10;100324.00;;;;5111502;28;20201;-80
2023/07/28 03:26:08;;;;;;;10.45;5.70;;;;;24.10;100326.00;;;;5112016;28;20190;-81
2023/07/28 03:28:36;;;;;;;10.73;5.45;;;;;24.10;100322.00;;;;5111490;28;20206;-80
2023/07/28 03:31:03;;;;;;;7.03;4.95;;;;;24.10;100321.00;;;;5111949;28;20208;-80
2023/07/28 03:33:31;;;;;;;9.15;5.43;;;;;24.10;100325.00;;;;5110756;28;20208;-80
2023/07/28 03:35:58;;;;;;;13.25;6.45;;;;;24.10;100321.00;;;;5094085;28;20213;-80
2023/07/28 03:38:25;;;;;;;8.02;5.18;;;;;24.10;100326.00;;;;5090723;28;20209;-81
2023/07/28 03:40:52;;;;;;;10.75;6.28;;;;;24.10;100330.00;;;;5090913;28;20668;-81
2023/07/28 03:43:20;;;;;;;10.20;5.35;;;;;24.10;100337.00;;;;5091196;28;20195;-80
2023/07/28 03:45:48;;;;;;;10.32;5.45;;;;;24.10;100338.00;;;;5090873;28;20544;-81
2023/07/28 03:48:16;;;;;;;15.82;6.78;;;;;24.10;100335.00;;;;5091446;28;20208;-81
2023/07/28 03:50:43;;;;;;;16.42;6.63;;;;;24.20;100343.00;;;;5090518;28;20222;-80
2023/07/28 03:53:10;;;;;;;10.52;6.32;;;;;24.20;100335.00;;;;5091144;28;20237;-80
2023/07/28 03:55:37;;;;;;;11.82;6.03;;;;;24.20;100335.00;;;;5090552;28;20202;-81
2023/07/28 03:58:04;;;;;;;11.48;6.13;;;;;24.20;100341.00;;;;5090802;28;20198;-80
2023/07/28 04:00:32;;;;;;;10.50;5.57;;;;;24.20;100333.00;;;;5090457;28;20202;-80
2023/07/28 04:03:00;;;;;;;12.20;5.43;;;;;24.20;100342.00;;;;5090435;28;20659;-81
2023/07/28 04:05:28;;;;;;;14.00;6.43;;;;;24.20;100344.00;;;;5090516;28;20190;-80
2023/07/28 04:07:55;;;;;;;12.88;6.30;;;;;24.20;100340.00;;;;5091076;28;20203;-79
2023/07/28 04:10:23;;;;;;;10.10;5.88;;;;;24.20;100341.00;;;;5089922;28;20309;-80
2023/07/28 04:12:50;;;;;;;18.52;6.40;;;;;24.20;100338.00;;;;5090232;28;20206;-81
2023/07/28 04:15:17;;;;;;;10.68;5.40;;;;;24.20;100341.00;;;;5095068;28;20202;-80
2023/07/28 04:17:45;;;;;;;12.18;6.30;;;;;24.20;100343.00;;;;5110711;28;20212;-81
2023/07/28 04:20:14;;;;;;;11.75;6.25;;;;;24.20;100339.00;;;;5110865;28;20198;-80
2023/07/28 04:22:41;;;;;;;15.18;6.97;;;;;24.20;100337.00;;;;5110493;28;20205;-79
2023/07/28 04:25:09;;;;;;;17.13;7.22;;;;;24.20;100337.00;;;;5108132;28;20424;-80
2023/07/28 04:27:36;;;;;;;11.38;6.05;;;;;24.20;100343.00;;;;5089805;28;20683;-80
2023/07/28 04:30:03;;;;;;;12.43;6.85;;;;;24.20;100345.00;;;;5090337;28;20226;-80
2023/07/28 04:32:31;;;;;;;12.15;6.35;;;;;24.20;100343.00;;;;5088225;28;20623;-80
2023/07/28 04:34:58;;;;;;;13.95;6.47;;;;;24.20;100357.00;;;;5090262;28;20693;-80
2023/07/28 04:37:27;;;;;;;14.55;7.63;;;;;24.20;100352.00;;;;5090108;28;20642;-80
2023/07/28 04:39:54;;;;;;;11.95;6.20;;;;;24.20;100357.00;;;;5090437;28;20585;-79
2023/07/28 04:42:21;;;;;;;12.45;5.93;;;;;24.20;100356.00;;;;5090232;28;20312;-80
2023/07/28 04:44:48;;;;;;;12.27;5.97;;;;;24.20;100359.00;;;;5089965;28;20407;-80
2023/07/28 04:47:16;;;;;;;14.18;7.30;;;;;24.20;100354.00;;;;5089947;28;20205;-81
2023/07/28 04:49:43;;;;;;;9.85;6.10;;;;;24.20;100365.00;;;;5089444;28;20229;-79
2023/07/28 04:52:12;;;;;;;13.88;6.68;;;;;24.30;100363.00;;;;5089768;28;20198;-80
2023/07/28 04:54:41;;;;;;;7.70;5.15;;;;;24.20;100366.00;;;;5089772;28;21023;-80
2023/07/28 04:57:08;;;;;;;9.85;5.50;;;;;24.30;100379.00;;;;5089399;28;20210;-79
2023/07/28 04:59:35;;;;;;;8.38;5.38;;;;;24.30;100371.00;;;;5089656;28;20213;-80
2023/07/28 05:02:02;;;;;;;15.60;6.60;;;;;24.30;100371.00;;;;5090213;28;20202;-79
2023/07/28 05:04:30;;;;;;;8.95;5.05;;;;;24.30;100376.00;;;;5089363;28;20191;-80
2023/07/28 05:06:57;;;;;;;10.57;6.97;;;;;24.30;100372.00;;;;5089638;28;20664;-80
2023/07/28 05:09:24;;;;;;;12.55;6.50;;;;;24.30;100371.00;;;;5089468;28;20280;-81
2023/07/28 05:11:53;;;;;;;13.50;6.88;;;;;24.30;100379.00;;;;5088769;28;20226;-80
2023/07/28 05:14:20;;;;;;;11.38;6.60;;;;;24.30;100375.00;;;;5088940;28;20220;-80
2023/07/28 05:16:47;;;;;;;10.00;6.68;;;;;24.30;100373.00;;;;5105455;28;20201;-80
2023/07/28 05:19:15;;;;;;;10.75;6.55;;;;;24.30;100375.00;;;;5109693;28;20236;-80
2023/07/28 05:21:42;;;;;;;13.30;6.70;;;;;24.30;100382.00;;;;5108793;28;20616;-80
2023/07/28 05:24:09;;;;;;;11.52;6.22;;;;;24.40;100379.00;;;;5109651;28;20197;-80
2023/07/28 05:26:36;;;;;;;10.43;5.93;;;;;24.40;100375.00;;;;5109973;28;20208;-80
2023/07/28 05:29:05;;;;;;;9.98;5.95;;;;;24.40;100375.00;;;;5109201;28;20702;-80
2023/07/28 05:31:32;;;;;;;13.13;6.65;;;;;24.40;100374.00;;;;5108202;28;20309;-80
2023/07/28 05:33:59;;;;;;;8.90;6.63;;;;;24.40;100369.00;;;;5099625;28;20212;-80
2023/07/28 05:36:28;;;;;;;13.02;6.53;;;;;24.40;100366.00;;;;5088813;28;20206;-80
2023/07/28 05:38:56;;;;;;;12.02;7.15;;;;;24.40;100380.00;;;;5088773;28;20231;-80
2023/07/28 05:41:23;;;;;;;10.25;6.70;;;;;24.40;100375.00;;;;5088978;28;20564;-80
2023/07/28 05:43:51;;;;;;;12.50;6.88;;;;;24.40;100384.00;;;;5088269;28;20202;-79
2023/07/28 05:46:19;;;;;;;11.02;6.00;;;;;24.40;100389.00;;;;5088952;28;20752;-80
2023/07/28 05:48:46;;;;;;;11.68;6.50;;;;;24.50;100382.00;;;;5088780;28;20672;-81
2023/07/28 05:51:14;;;;;;;11.25;6.25;;;;;24.50;100382.00;;;;5088731;28;20230;-80
2023/07/28 05:53:41;;;;;;;8.80;5.97;;;;;24.50;100390.00;;;;5088466;28;20198;-80
2023/07/28 05:56:08;;;;;;;10.73;6.63;;;;;24.50;100393.00;;;;5088687;28;20202;-80
2023/07/28 05:58:35;;;;;;;9.38;6.13;;;;;24.50;100401.00;;;;5088617;28;20202;-80
2023/07/28 06:01:03;;;;;;;10.95;6.55;;;;;24.50;100402.00;;;;5088790;28;20190;-79
2023/07/28 06:03:31;;;;;;;9.93;5.72;;;;;24.50;100410.00;;;;5088183;28;20198;-79
2023/07/28 06:05:59;;;;;;;7.78;5.90;;;;;24.50;100400.00;;;;5088351;28;20198;-80
2023/07/28 06:08:26;;;;;;;9.68;6.20;;;;;24.50;100403.00;;;;5088666;28;20218;-80
2023/07/28 06:10:53;;;;;;;9.77;5.80;;;;;24.50;100403.00;;;;5088291;28;20237;-80
2023/07/28 06:13:20;;;;;;;11.27;6.43;;;;;24.50;100401.00;;;;5088464;28;20199;-81
2023/07/28 06:15:48;;;;;;;11.70;6.53;;;;;24.50;100408.00;;;;5096507;28;20205;-80
2023/07/28 06:18:16;;;;;;;9.77;6.47;;;;;24.50;100413.00;;;;5109310;28;20216;-80
2023/07/28 06:20:45;;;;;;;8.45;6.25;;;;;24.50;100411.00;;;;5107746;28;20192;-80
2023/07/28 06:23:12;;;;;;;10.13;5.70;;;;;24.60;100413.00;;;;5108196;28;20205;-80
2023/07/28 06:25:43;;;;;;;7.90;5.43;;;;;24.60;100411.00;;;;5093539;28;20221;-80
2023/07/28 06:28:11;;;;;;;9.20;5.95;;;;;24.60;100416.00;;;;5087904;28;20202;-81
2023/07/28 06:30:38;;;;;;;9.60;5.65;;;;;24.60;100416.00;;;;5087699;28;20688;-80
2023/07/28 06:33:07;;;;;;;8.48;5.53;;;;;24.60;100420.00;;;;5088431;28;20206;-80
2023/07/28 06:35:34;;;;;;;9.48;5.53;;;;;24.60;100427.00;;;;5087238;28;20205;-81
2023/07/28 06:38:03;;;;;;;8.32;5.65;;;;;24.60;100434.00;;;;5087680;28;20576;-80
2023/07/28 06:40:31;;;;;;;9.20;5.72;;;;;24.60;100437.00;;;;5087686;28;20202;-81
2023/07/28 06:42:58;;;;;;;10.55;5.50;;;;;24.70;100439.00;;;;5088703;28;20208;-80
2023/07/28 06:45:25;;;;;;;7.93;4.75;;;;;24.70;100440.00;;;;5088136;28;20200;-81
2023/07/28 06:47:53;;;;;;;7.20;4.68;;;;;24.70;100438.00;;;;5087845;28;20213;-80
2023/07/28 06:50:20;;;;;;;7.97;5.70;;;;;24.70;100443.00;;;;5087370;28;20226;-81
2023/07/28 06:52:49;;;;;;;8.48;5.10;;;;;24.70;100443.00;;;;5087677;28;20198;-80
2023/07/28 06:55:18;;;;;;;10.45;4.78;;;;;24.70;100449.00;;;;5090582;28;20238;-80
2023/07/28 06:57:46;;;;;;;7.50;5.38;;;;;24.70;100450.00;;;;5091681;28;20255;-80
2023/07/28 07:00:14;;;;;;;11.35;5.35;;;;;24.70;100456.00;;;;5092176;28;20304;-81
2023/07/28 07:02:41;;;;;;;8.52;4.25;;;;;24.70;100452.00;;;;5091365;28;20198;-79
2023/07/28 07:05:09;;;;;;;6.32;4.38;;;;;24.70;100456.00;;;;5091739;28;20190;-80
2023/07/28 07:07:36;;;;;;;7.13;4.63;;;;;24.80;100456.00;;;;5091840;28;20206;-80
2023/07/28 07:10:04;;;;;;;9.73;4.22;;;;;24.80;100457.00;;;;5091555;28;20236;-80
2023/07/28 07:12:33;;;;;;;6.45;4.15;;;;;24.80;100457.00;;;;5091182;28;20249;-79
2023/07/28 07:15:00;;;;;;;7.20;4.50;;;;;24.80;100469.00;;;;5092558;28;20214;-80
2023/07/28 07:17:28;;;;;;;8.20;5.03;;;;;24.80;100463.00;;;;5111815;28;20202;-80
2023/07/28 07:19:55;;;;;;;4.93;3.90;;;;;24.80;100466.00;;;;5112123;28;20540;-80
2023/07/28 07:22:22;;;;;;;7.55;4.28;;;;;24.80;100461.00;;;;5111170;28;20197;-79
2023/07/28 07:24:49;;;;;;;9.15;4.15;;;;;24.90;100467.00;;;;5112563;28;20209;-80
2023/07/28 07:27:16;;;;;;;8.05;4.25;;;;;24.90;100471.00;;;;5112146;28;20198;-81
2023/07/28 07:29:45;;;;;;;8.30;5.30;;;;;24.90;100470.00;;;;5111112;28;20202;-80
2023/07/28 07:32:12;;;;;;;6.80;4.45;;;;;24.90;100470.00;;;;5108524;28;20233;-81
2023/07/28 07:34:40;;;;;;;6.18;4.25;;;;;24.90;100473.00;;;;5090914;28;20213;-80
2023/07/28 07:37:07;;;;;;;4.72;3.95;;;;;24.90;100476.00;;;;5091539;28;20202;-80
2023/07/28 07:39:36;;;;;;;6.43;4.10;;;;;24.90;100477.00;;;;5091462;28;20592;-81
2023/07/28 07:42:03;;;;;;;8.18;3.95;;;;;24.90;100479.00;;;;5090790;28;20220;-80
2023/07/28 07:44:30;;;;;;;5.85;3.90;;;;;25.00;100480.00;;;;5090748;28;20631;-80
2023/07/28 07:47:01;;;;;;;6.68;3.90;;;;;24.90;100486.00;;;;5091342;28;20206;-80
2023/07/28 07:49:28;;;;;;;7.63;3.58;;;;;25.00;100490.00;;;;5091574;28;20202;-80
2023/07/28 07:51:55;;;;;;;8.27;4.57;;;;;25.00;100494.00;;;;5090953;28;20229;-79
2023/07/28 07:54:23;;;;;;;5.80;3.58;;;;;25.00;100499.00;;;;5090902;28;20205;-80
2023/07/28 07:56:50;;;;;;;8.07;3.85;;;;;25.00;100495.00;;;;5090543;28;20198;-79
2023/07/28 07:59:17;;;;;;;6.63;3.92;;;;;25.00;100500.00;;;;5091248;28;20609;-79
2023/07/28 08:01:45;;;;;;;5.60;4.55;;;;;25.10;100499.00;;;;5090806;28;20198;-79
2023/07/28 08:04:13;;;;;;;4.82;3.65;;;;;25.10;100499.00;;;;5091045;28;20194;-79
2023/07/28 08:06:40;;;;;;;6.43;4.00;;;;;25.10;100503.00;;;;5090398;28;20218;-79
2023/07/28 08:09:08;;;;;;;6.45;4.00;;;;;25.20;100507.00;;;;5090492;28;20225;-80
2023/07/28 08:11:35;;;;;;;7.22;3.67;;;;;25.20;100512.00;;;;5089898;28;20245;-80
2023/07/28 08:14:02;;;;;;;7.13;4.38;;;;;25.30;100515.00;;;;5090532;28;20202;-80
2023/07/28 08:16:30;;;;;;;6.07;3.90;;;;;25.30;100514.00;;;;5104319;28;20198;-80
2023/07/28 08:18:57;;;;;;;6.40;3.38;;;;;25.30;100515.00;;;;5110279;28;20198;-80
2023/07/28 08:21:26;;;;;;;5.53;3.70;;;;;25.40;100516.00;;;;5110382;28;20197;-81
2023/07/28 08:23:53;;;;;;;6.57;3.83;;;;;25.50;100513.00;;;;5102154;28;20222;-79
2023/07/28 08:26:20;;;;;;;8.82;3.75;;;;;25.50;100510.00;;;;5090615;28;20218;-80
2023/07/28 08:28:47;;;;;;;14.07;4.25;;;;;25.60;100520.00;;;;5089658;28;20245;-81
2023/07/28 08:31:15;;;;;;;6.15;4.03;;;;;25.60;100514.00;;;;5090875;28;20685;-81
2023/07/28 08:33:42;;;;;;;6.75;3.22;;;;;25.60;100526.00;;;;5089764;28;20210;-79
2023/07/28 08:36:09;;;;;;;8.65;3.42;;;;;25.70;100528.00;;;;5105746;28;20205;-80
2023/07/28 08:38:38;;;;;;;5.50;3.20;;;;;25.70;100532.00;;;;5109790;28;20636;-79
2023/07/28 08:41:06;;;;;;;6.85;3.60;;;;;25.70;100536.00;;;;5099641;28;21024;-81
2023/07/28 08:43:33;;;;;;;5.80;3.47;;;;;25.80;100534.00;;;;5089776;28;20195;-80
2023/07/28 08:46:00;;;;;;;6.78;2.80;;;;;25.80;100536.00;;;;5090635;28;20198;-80
2023/07/28 08:48:28;;;;;;;4.10;2.60;;;;;25.80;100535.00;;;;5089524;28;20206;-80
2023/07/28 08:50:55;;;;;;;5.53;3.13;;;;;25.80;100532.00;;;;5090040;28;20695;-80
2023/07/28 08:53:22;;;;;;;4.68;2.45;;;;;25.80;100530.00;;;;5089604;28;20195;-79
2023/07/28 08:55:51;;;;;;;3.30;2.22;;;;;25.80;100537.00;;;;5089177;28;20202;-79
2023/07/28 08:58:20;;;;;;;5.22;2.90;;;;;25.90;100533.00;;;;5090415;28;20247;-80
2023/07/28 09:00:49;;;;;;;6.68;2.55;;;;;26.00;100530.00;;;;5089405;28;20635;-79
2023/07/28 09:03:17;;;;;;;6.28;3.30;;;;;26.10;100533.00;;;;5089861;28;20210;-81
2023/07/28 09:05:46;;;;;;;4.65;2.67;;;;;26.20;100534.00;;;;5089516;28;20259;-81
2023/07/28 09:08:13;;;;;;;5.13;3.17;;;;;26.20;100526.00;;;;5088859;28;20259;-81
2023/07/28 09:10:45;;;;;;;6.90;3.03;;;;;26.30;100525.00;;;;5089150;28;20238;-81
2023/07/28 09:13:14;;;;;;;7.05;2.83;;;;;26.40;100530.00;;;;5089460;28;20217;-80
2023/07/28 09:15:41;;;;;;;4.18;2.60;;;;;26.50;100539.00;;;;5096742;28;20217;-81
2023/07/28 09:18:10;;;;;;;5.45;2.95;;;;;26.60;100532.00;;;;5109192;28;20205;-80
2023/07/28 09:20:38;;;;;;;6.75;2.85;;;;;26.70;100529.00;;;;5108940;28;20201;-79
2023/07/28 09:23:07;;;;;;;7.30;2.83;;;;;26.80;100536.00;;;;5109810;28;20197;-81
2023/07/28 09:25:35;;;;;;;4.63;2.80;;;;;26.90;100536.00;;;;5108749;28;20202;-81
2023/07/28 09:28:02;;;;;;;2.60;2.35;;;;;27.00;100544.00;;;;5109439;28;20201;-81
2023/07/28 09:30:47;;;;;;;3.05;2.47;;;;;26.90;100539.00;;;;5109268;28;20294;-81
2023/07/28 09:33:14;;;;;;;4.25;3.03;;;;;27.10;100545.00;;;;5089003;28;20233;-81
2023/07/28 09:35:50;;;;;;;7.68;3.42;;;;;27.10;100539.00;;;;5088522;28;20679;-80
2023/07/28 09:38:19;;;;;;;6.88;2.67;;;;;27.20;100534.00;;;;5088465;28;20584;-80
2023/07/28 09:40:47;;;;;;;6.90;3.47;;;;;27.30;100544.00;;;;5088375;28;20206;-81
2023/07/28 09:43:14;;;;;;;5.40;3.05;;;;;27.40;100551.00;;;;5088422;28;20848;-81
2023/07/28 09:45:44;;;;;;;5.47;2.97;;;;;27.40;100553.00;;;;5088477;28;20611;-80
2023/07/28 09:48:14;;;;;;;7.40;3.63;;;;;27.40;100545.00;;;;5088815;28;20221;-81
2023/07/28 09:50:42;;;;;;;5.38;3.70;;;;;27.50;100551.00;;;;5087805;28;20209;-81
2023/07/28 09:53:11;;;;;;;3.63;2.40;;;;;27.50;100547.00;;;;5088896;28;20217;-81
2023/07/28 09:55:42;;;;;;;5.03;2.92;;;;;27.50;100556.00;;;;5088278;28;20198;-81
2023/07/28 09:58:12;;;;;;;4.43;3.30;;;;;27.50;100556.00;;;;5089010;28;20204;-81
2023/07/28 10:00:41;;;;;;;4.78;3.00;;;;;27.60;100555.00;;;;5087521;28;20573;-80
2023/07/28 10:03:10;;;;;;;5.20;2.70;;;;;27.60;100552.00;;;;5088790;28;20194;-81
2023/07/28 10:05:38;;;;;;;5.15;3.13;;;;;27.70;100549.00;;;;5088279;28;20606;-80
2023/07/28 10:08:06;;;;;;;3.65;2.72;;;;;27.70;100558.00;;;;5088196;28;20255;-80
2023/07/28 10:10:34;;;;;;;6.38;3.40;;;;;27.80;100553.00;;;;5087985;28;20234;-82
2023/07/28 10:13:02;;;;;;;3.67;3.33;;;;;27.80;100550.00;;;;5088413;28;20232;-81
2023/07/28 10:15:31;;;;;;;6.65;3.60;;;;;27.80;100550.00;;;;5102059;28;20201;-81
2023/07/28 10:18:01;;;;;;;4.85;2.55;;;;;27.80;100547.00;;;;5108662;28;20205;-81
2023/07/28 10:20:34;;;;;;;4.15;3.35;;;;;27.90;100551.00;;;;5107745;28;20674;-81
2023/07/28 10:23:11;;;;;;;3.70;3.05;;;;;27.80;100554.00;;;;5098141;28;20229;-83
2023/07/28 10:25:40;;;;;;;7.25;3.85;;;;;27.90;100557.00;;;;5087943;28;20202;-80
2023/07/28 10:28:08;;;;;;;3.60;3.30;;;;;27.90;100554.00;;;;5088038;28;20569;-81
2023/07/28 10:30:38;;;;;;;6.03;3.47;;;;;27.90;100552.00;;;;5086796;28;20202;-81
2023/07/28 10:33:07;;;;;;;5.75;3.72;;;;;28.00;100555.00;;;;5088598;28;20279;-81
2023/07/28 10:35:34;;;;;;;5.47;3.67;;;;;28.10;100558.00;;;;5087972;28;20681;-82
2023/07/28 10:38:34;;;;;;;4.47;3.30;;;;;28.00;100563.00;;;;5087442;28;20553;-81
2023/07/28 10:41:13;;;;;;;3.95;3.47;;;;;28.00;100559.00;;;;5088399;28;20205;-81
2023/07/28 10:43:41;;;;;;;6.10;4.88;;;;;28.10;100560.00;;;;5087999;28;20198;-81
2023/07/28 10:46:10;;;;;;;8.00;4.90;;;;;28.10;100560.00;;;;5088112;28;20675;-82
2023/07/28 10:48:44;;;;;;;6.55;4.25;;;;;28.10;100564.00;;;;5087710;28;20243;-82
2023/07/28 10:51:12;;;;;;;8.30;5.72;;;;;28.10;100568.00;;;;5088079;28;20202;-81
2023/07/28 10:53:39;;;;;;;7.80;5.20;;;;;28.10;100564.00;;;;5087555;28;20516;-82
2023/07/28 10:56:09;;;;;;;5.15;4.35;;;;;28.10;100565.00;;;;5088192;28;20578;-82
2023/07/28 10:58:37;;;;;;;6.65;4.65;;;;;28.20;100573.00;;;;5087509;28;20201;-82
2023/07/28 11:01:04;;;;;;;6.35;4.55;;;;;28.20;100568.00;;;;5087889;28;20198;-80
2023/07/28 11:03:31;;;;;;;4.00;3.40;;;;;28.20;100574.00;;;;5087565;28;20233;-81
2023/07/28 11:06:00;;;;;;;4.07;3.45;;;;;28.20;100581.00;;;;5088092;28;20194;-81
2023/07/28 11:08:28;;;;;;;4.50;4.03;;;;;28.20;100577.00;;;;5087883;28;20222;-82
2023/07/28 11:10:55;;;;;;;7.80;3.90;;;;;28.20;100577.00;;;;5087872;28;20245;-83
2023/07/28 11:13:25;;;;;;;6.65;4.45;;;;;28.20;100587.00;;;;5087546;28;20226;-80
2023/07/28 11:15:53;;;;;;;7.88;4.25;;;;;28.20;100587.00;;;;5104717;28;20214;-81
2023/07/28 11:18:21;;;;;;;6.03;5.13;;;;;28.30;100587.00;;;;5107557;28;20236;-82
2023/07/28 11:20:48;;;;;;;6.93;5.28;;;;;28.30;100590.00;;;;5107962;28;20201;-83
2023/07/28 11:23:17;;;;;;;6.50;4.95;;;;;28.30;100590.00;;;;5107901;28;20206;-81
2023/07/28 11:25:47;;;;;;;8.23;5.18;;;;;28.40;100586.00;;;;5107314;28;20289;-82
2023/07/28 11:28:14;;;;;;;8.95;5.07;;;;;28.40;100591.00;;;;5107835;28;20288;-80
2023/07/28 11:30:43;;;;;;;6.90;4.50;;;;;28.40;100587.00;;;;5099971;28;20593;-81
2023/07/28 11:33:12;;;;;;;6.97;4.95;;;;;28.50;100589.00;;;;5087958;28;20628;-81
2023/07/28 11:35:40;;;;;;;4.53;3.90;;;;;28.60;100587.00;;;;5087566;28;20190;-80
2023/07/28 11:38:09;;;;;;;7.32;4.65;;;;;28.60;100590.00;;;;5098278;28;20194;-81
2023/07/28 11:40:38;;;;;;;6.20;4.18;;;;;28.60;100590.00;;;;5109173;28;20202;-81
2023/07/28 11:43:07;;;;;;;4.70;3.88;;;;;28.70;100587.00;;;;5112197;28;20206;-80
2023/07/28 11:45:34;;;;;;;4.57;3.85;;;;;28.70;100586.00;;;;5111617;28;20233;-81
2023/07/28 11:48:04;;;;;;;6.78;4.88;;;;;28.80;100579.00;;;;5101839;28;20702;-80
2023/07/28 11:50:36;;;;;;;4.63;3.92;;;;;28.80;100582.00;;;;5089934;28;20573;-81
2023/07/28 11:53:03;;;;;;;5.80;4.00;;;;;28.90;100591.00;;;;5091180;28;20226;-81
2023/07/28 11:55:31;;;;;;;6.18;4.70;;;;;28.90;100588.00;;;;5091169;28;20190;-80
2023/07/28 11:58:01;;;;;;;7.88;4.43;;;;;28.90;100596.00;;;;5090521;28;20190;-81
2023/07/28 12:00:34;;;;;;;5.93;3.70;;;;;28.80;100594.00;;;;5090585;28;20201;-81
2023/07/28 12:03:10;;;;;;;5.55;4.25;;;;;28.80;100597.00;;;;5090418;28;20206;-82
2023/07/28 12:05:38;;;;;;;4.22;3.38;;;;;28.90;100596.00;;;;5091393;28;20286;-80
2023/07/28 12:08:07;;;;;;;5.10;3.53;;;;;28.90;100599.00;;;;5090945;28;20202;-81
2023/07/28 12:10:35;;;;;;;7.07;3.92;;;;;29.00;100590.00;;;;5090161;28;20222;-81